Time;durP1;ratioP1;P1;durP2;ratioP2;P2;SDS_P1;SDS_P2;PMS_P1;PMS_P2;Temp;Humidity;BMP_temperature;BMP_pressure;BME280_temperature;BME280_humidity;BME280_pressure;Samples;Min_cycle;Max_cycle;Signal;HPM_P1;HPM_P2
2024/04/16 00:01:38;;;;;;;1.95;0.70;;;;;;;8.80;38.96;99981.66;5405997;26;20372;-81
2024/04/16 00:04:09;;;;;;;3.47;1.20;;;;;;;8.77;38.60;99979.19;5397745;26;20020;-81
2024/04/16 00:06:36;;;;;;;1.10;0.60;;;;;;;8.74;38.81;99976.78;5370481;26;20016;-81
2024/04/16 00:09:06;;;;;;;2.10;0.77;;;;;;;8.71;38.76;99984.22;5364473;26;20004;-81
2024/04/16 00:11:33;;;;;;;2.17;0.65;;;;;;;8.67;38.97;99976.50;5398467;26;20456;-81
2024/04/16 00:14:13;;;;;;;1.58;0.60;;;;;;;8.66;38.78;99974.78;5374408;26;20047;-81
2024/04/16 00:16:55;;;;;;;1.13;0.70;;;;;;;8.61;38.57;99979.78;5361238;26;20012;-82
2024/04/16 00:19:25;;;;;;;2.90;0.80;;;;;;;8.58;38.61;99975.50;5393577;26;20018;-81
2024/04/16 00:21:52;;;;;;;1.67;0.70;;;;;;;8.54;38.81;99968.59;5389843;26;20020;-83
2024/04/16 00:24:22;;;;;;;2.38;1.00;;;;;;;8.53;38.74;99966.84;5401566;26;20019;-81
2024/04/16 00:26:49;;;;;;;3.13;0.77;;;;;;;8.50;38.35;99971.75;5401528;26;20359;-82
2024/04/16 00:29:21;;;;;;;2.72;0.90;;;;;;;8.48;38.60;99966.44;5401673;26;20012;-81
2024/04/16 00:31:48;;;;;;;2.05;0.73;;;;;;;8.39;38.36;99975.47;5366304;26;20004;-81
2024/04/16 00:34:18;;;;;;;1.73;0.77;;;;;;;8.40;38.70;99970.88;5370505;26;20077;-81
2024/04/16 00:36:47;;;;;;;3.30;0.90;;;;;;;8.38;38.66;99953.78;5399744;26;20012;-81
2024/04/16 00:39:16;;;;;;;1.80;0.70;;;;;;;8.37;38.72;99952.06;5363919;26;20475;-82
2024/04/16 00:41:47;;;;;;;3.53;0.95;;;;;;;8.37;38.83;99957.53;5398973;26;20007;-82
2024/04/16 00:44:16;;;;;;;2.28;0.70;;;;;;;8.31;38.63;99943.47;5369611;26;20039;-83
2024/04/16 00:46:47;;;;;;;1.85;0.90;;;;;;;8.29;38.98;99940.00;5369277;26;20004;-81
2024/04/16 00:49:17;;;;;;;3.10;0.80;;;;;;;8.25;38.70;99938.59;5397319;26;20004;-82
2024/04/16 00:51:44;;;;;;;4.13;1.10;;;;;;;8.27;39.17;99933.84;5392015;26;20047;-83
2024/04/16 00:54:14;;;;;;;2.22;0.98;;;;;;;8.25;38.64;99919.50;5395384;26;20050;-82
2024/04/16 00:56:42;;;;;;;2.38;0.95;;;;;;;8.23;38.97;99932.41;5375886;26;20084;-82
2024/04/16 00:59:13;;;;;;;2.60;0.90;;;;;;;8.21;38.87;99918.06;5378510;26;20051;-80
2024/04/16 01:01:41;;;;;;;1.35;0.73;;;;;;;8.16;38.69;99920.34;5364610;26;20016;-82
2024/04/16 01:04:14;;;;;;;3.40;1.05;;;;;;;8.21;39.25;99917.19;5368974;26;20059;-82
2024/04/16 01:06:41;;;;;;;2.38;0.80;;;;;;;8.17;38.85;99916.63;5365959;26;20016;-82
2024/04/16 01:09:14;;;;;;;4.65;1.25;;;;;;;8.20;39.24;99918.19;5394398;26;20088;-82
2024/04/16 01:11:42;;;;;;;2.47;1.00;;;;;;;8.16;39.24;99919.50;5396954;26;20440;-81
2024/04/16 01:14:12;;;;;;;2.33;0.88;;;;;;;8.17;39.11;99922.09;5397044;26;20039;-82
2024/04/16 01:16:39;;;;;;;2.75;1.10;;;;;;;8.17;38.86;99918.50;5367633;26;20028;-81
2024/04/16 01:19:10;;;;;;;4.40;1.00;;;;;;;8.17;38.98;99915.78;5373831;26;20022;-81
2024/04/16 01:21:40;;;;;;;2.80;1.10;;;;;;;8.17;39.35;99907.59;5402396;26;20023;-82
2024/04/16 01:24:12;;;;;;;1.38;0.80;;;;;;;8.18;39.38;99914.72;5377497;26;20015;-79
2024/04/16 01:26:40;;;;;;;4.78;1.48;;;;;;;8.13;39.41;99906.09;5404110;26;20049;-81
2024/04/16 01:29:10;;;;;;;3.92;0.88;;;;;;;8.15;39.18;99904.13;5408182;26;20015;-81
2024/04/16 01:31:37;;;;;;;2.28;0.95;;;;;;;8.16;39.14;99903.13;5403172;26;20101;-81
2024/04/16 01:34:06;;;;;;;4.32;1.08;;;;;;;8.19;39.47;99905.56;5404879;26;20018;-80
2024/04/16 01:36:34;;;;;;;2.08;0.90;;;;;;;8.18;39.50;99890.22;5408361;26;20000;-81
2024/04/16 01:39:03;;;;;;;2.72;0.98;;;;;;;8.20;39.06;99893.66;5382278;26;20015;-82
2024/04/16 01:41:33;;;;;;;3.72;1.00;;;;;;;8.21;39.59;99895.38;5403001;26;20023;-83
2024/04/16 01:44:03;;;;;;;3.20;1.23;;;;;;;8.19;39.26;99884.63;5366721;26;20004;-83
2024/04/16 01:46:31;;;;;;;2.47;1.00;;;;;;;8.20;39.13;99880.03;5366843;26;20050;-83
2024/04/16 01:49:01;;;;;;;2.20;1.00;;;;;;;8.19;39.27;99872.84;5375211;26;20000;-83
2024/04/16 01:51:28;;;;;;;2.92;0.98;;;;;;;8.18;39.28;99871.13;5364129;26;20018;-83
2024/04/16 01:53:58;;;;;;;2.30;0.77;;;;;;;8.16;39.13;99868.56;5364516;26;20304;-82
2024/04/16 01:56:26;;;;;;;3.22;0.88;;;;;;;8.16;39.39;99873.16;5372149;26;20041;-80
2024/04/16 01:58:58;;;;;;;2.42;1.00;;;;;;;8.17;39.51;99870.31;5394990;26;20032;-79
2024/04/16 02:01:25;;;;;;;3.63;1.20;;;;;;;8.11;39.10;99876.25;5368733;26;20080;-83
2024/04/16 02:03:55;;;;;;;1.73;0.77;;;;;;;8.15;39.09;99875.03;5387339;26;20012;-82
2024/04/16 02:06:22;;;;;;;3.13;0.98;;;;;;;8.13;39.49;99866.13;5359272;26;20019;-83
2024/04/16 02:08:52;;;;;;;3.85;1.13;;;;;;;8.13;39.47;99865.22;5368305;26;20004;-81
2024/04/16 02:11:19;;;;;;;2.70;1.25;;;;;;;8.14;39.26;99867.84;5364101;26;20352;-82
2024/04/16 02:13:49;;;;;;;3.15;0.80;;;;;;;8.15;39.42;99869.56;5391568;26;20485;-83
2024/04/16 02:16:19;;;;;;;2.53;0.90;;;;;;;8.17;39.31;99858.53;5368824;26;20003;-83
2024/04/16 02:18:49;;;;;;;2.72;0.90;;;;;;;8.16;39.35;99863.13;5365518;26;20018;-82
2024/04/16 02:21:16;;;;;;;3.53;1.08;;;;;;;8.19;39.06;99854.63;5396492;26;20007;-82
2024/04/16 02:23:46;;;;;;;3.10;1.15;;;;;;;8.20;38.96;99855.50;5391711;26;20008;-82
2024/04/16 02:26:13;;;;;;;2.17;0.93;;;;;;;8.19;39.26;99848.31;5395784;26;20008;-82
2024/04/16 02:28:45;;;;;;;2.90;1.05;;;;;;;8.22;39.03;99848.91;5392643;26;21885;-83
2024/04/16 02:31:12;;;;;;;4.37;1.10;;;;;;;8.19;39.05;99841.00;5359597;26;20003;-83
2024/04/16 02:33:44;;;;;;;3.25;1.00;;;;;;;8.22;39.23;99839.88;5390322;26;20004;-82
2024/04/16 02:36:11;;;;;;;3.17;1.00;;;;;;;8.20;39.23;99842.75;5369204;26;20034;-82
2024/04/16 02:38:41;;;;;;;3.30;0.95;;;;;;;8.20;39.00;99831.84;5393580;26;20332;-82
2024/04/16 02:41:08;;;;;;;3.53;1.10;;;;;;;8.21;38.98;99843.59;5397281;26;20012;-81
2024/04/16 02:43:38;;;;;;;3.33;1.00;;;;;;;8.22;39.11;99838.00;5365089;26;20322;-83
2024/04/16 02:46:06;;;;;;;5.35;1.40;;;;;;;8.21;39.01;99836.28;5393470;26;20077;-81
2024/04/16 02:48:36;;;;;;;2.67;0.98;;;;;;;8.19;38.97;99832.84;5402541;26;20015;-82
2024/04/16 02:51:06;;;;;;;2.83;1.30;;;;;;;8.23;38.72;99827.97;5391423;26;20004;-80
2024/04/16 02:53:35;;;;;;;4.88;1.20;;;;;;;8.20;38.81;99823.66;5392304;26;20817;-82
2024/04/16 02:56:02;;;;;;;2.53;0.85;;;;;;;8.16;38.90;99833.13;5375865;26;20081;-82
2024/04/16 02:58:32;;;;;;;5.13;1.17;;;;;;;8.14;38.68;99831.56;5359448;26;20008;-81
2024/04/16 03:01:03;;;;;;;4.07;1.10;;;;;;;8.16;39.11;99835.88;5397222;26;20488;-82
2024/04/16 03:03:35;;;;;;;2.75;1.10;;;;;;;8.13;38.85;99832.53;5364120;26;20484;-82
2024/04/16 03:06:02;;;;;;;2.95;0.93;;;;;;;8.09;38.90;99831.09;5392686;26;20007;-82
2024/04/16 03:08:34;;;;;;;2.50;0.90;;;;;;;8.11;38.90;99826.34;5397271;26;20018;-81
2024/04/16 03:11:02;;;;;;;2.20;1.00;;;;;;;8.07;38.75;99816.75;5362111;26;20395;-82
2024/04/16 03:13:32;;;;;;;2.15;1.00;;;;;;;8.06;38.72;99815.03;5403270;26;20034;-82
2024/04/16 03:16:05;;;;;;;2.45;1.00;;;;;;;8.05;39.54;99819.63;5401921;26;20090;-82
2024/04/16 03:18:34;;;;;;;;;;;;;;;7.77;39.49;99818.59;5406984;26;20439;-81
2024/04/16 03:21:02;;;;;;;2.92;1.10;;;;;;;7.94;38.77;99811.56;5377483;26;19925;-81
2024/04/16 03:23:34;;;;;;;4.43;1.15;;;;;;;7.94;39.47;99806.13;5413960;26;20015;-81
2024/04/16 03:26:02;;;;;;;2.50;1.10;;;;;;;7.90;39.05;99807.44;5381339;26;20009;-82
2024/04/16 03:28:31;;;;;;;3.70;1.08;;;;;;;7.90;39.22;99807.44;5413884;26;20007;-81
2024/04/16 03:30:59;;;;;;;3.15;1.10;;;;;;;7.86;39.09;99795.94;5407064;26;20009;-83
2024/04/16 03:33:29;;;;;;;4.03;1.20;;;;;;;7.84;39.69;99784.34;5369938;26;20026;-82
2024/04/16 03:35:56;;;;;;;2.95;1.05;;;;;;;7.81;39.42;99787.34;5369401;26;20458;-83
2024/04/16 03:38:26;;;;;;;2.83;1.20;;;;;;;7.82;39.36;99786.34;5400722;26;20016;-83
2024/04/16 03:41:03;;;;;;;3.08;1.20;;;;;;;7.77;39.94;99788.63;5370106;26;20028;-82
2024/04/16 03:43:32;;;;;;;2.95;1.20;;;;;;;7.80;39.68;99795.66;5396568;26;20058;-82
2024/04/16 03:46:02;;;;;;;4.72;1.40;;;;;;;7.75;40.06;99795.25;5398052;26;20007;-82
2024/04/16 03:48:29;;;;;;;3.67;1.25;;;;;;;7.76;40.01;99786.06;5405486;26;20368;-82
2024/04/16 03:50:59;;;;;;;2.97;0.98;;;;;;;7.74;39.89;99782.63;5400250;26;20014;-81
2024/04/16 03:53:26;;;;;;;3.15;1.35;;;;;;;7.73;39.88;99779.03;5367271;26;20430;-82
2024/04/16 03:55:59;;;;;;;3.08;1.35;;;;;;;7.73;39.75;99784.47;5400517;26;20007;-81
2024/04/16 03:58:30;;;;;;;3.33;1.20;;;;;;;7.73;40.13;99773.59;5375350;26;20015;-82
2024/04/16 04:01:03;;;;;;;2.40;1.30;;;;;;;7.70;40.16;99775.72;5361536;26;20016;-82
2024/04/16 04:03:33;;;;;;;3.75;1.50;;;;;;;7.68;39.82;99783.19;5399968;26;20015;-82
2024/04/16 04:06:01;;;;;;;3.40;1.15;;;;;;;7.66;40.20;99768.84;5402511;26;20010;-82
2024/04/16 04:08:30;;;;;;;3.55;1.17;;;;;;;7.65;39.95;99778.88;5371599;26;20000;-82
2024/04/16 04:10:58;;;;;;;2.45;1.40;;;;;;;7.64;40.46;99768.13;5394553;26;20008;-82
2024/04/16 04:13:27;;;;;;;3.72;1.20;;;;;;;7.63;40.23;99767.28;5369334;26;20011;-82
2024/04/16 04:15:57;;;;;;;3.60;1.10;;;;;;;7.67;40.66;99770.59;5402209;26;20004;-81
2024/04/16 04:18:27;;;;;;;1.80;0.90;;;;;;;7.63;40.39;99780.88;5401119;26;20007;-81
2024/04/16 04:20:54;;;;;;;6.63;1.10;;;;;;;7.61;40.20;99762.97;5406771;26;20692;-81
2024/04/16 04:23:24;;;;;;;3.85;0.90;;;;;;;7.61;40.19;99754.78;5379446;26;20015;-80
2024/04/16 04:25:51;;;;;;;4.05;1.65;;;;;;;7.60;40.22;99762.09;5381929;26;20044;-82
2024/04/16 04:28:21;;;;;;;2.50;1.05;;;;;;;7.60;40.45;99764.81;5389317;26;20019;-81
2024/04/16 04:30:49;;;;;;;2.05;0.88;;;;;;;7.59;40.73;99757.69;5396239;26;20022;-81
2024/04/16 04:33:22;;;;;;;3.25;1.13;;;;;;;7.62;40.89;99757.38;5408427;26;20477;-81
2024/04/16 04:35:49;;;;;;;4.03;1.10;;;;;;;7.58;40.56;99764.13;5366847;26;19999;-82
2024/04/16 04:38:19;;;;;;;2.58;0.90;;;;;;;7.61;40.74;99754.78;5373287;26;20008;-81
2024/04/16 04:40:46;;;;;;;2.40;1.00;;;;;;;7.60;40.76;99753.94;5396110;26;20379;-81
2024/04/16 04:43:25;;;;;;;2.33;1.05;;;;;;;7.63;40.85;99750.94;5397643;26;20049;-81
2024/04/16 04:45:52;;;;;;;2.67;1.00;;;;;;;7.60;40.82;99748.47;5394383;26;20484;-81
2024/04/16 04:48:26;;;;;;;2.67;1.10;;;;;;;7.64;41.10;99752.66;5401123;26;20108;-82
2024/04/16 04:50:54;;;;;;;2.10;0.88;;;;;;;7.60;40.55;99753.94;5370582;26;20000;-82
2024/04/16 04:53:23;;;;;;;3.38;1.33;;;;;;;7.60;40.81;99753.94;5400561;26;20069;-81
2024/04/16 04:55:50;;;;;;;2.67;1.17;;;;;;;7.60;40.77;99751.19;5367920;26;20028;-82
2024/04/16 04:58:20;;;;;;;2.35;1.05;;;;;;;7.59;40.69;99749.50;5368268;26;20015;-82
2024/04/16 05:00:48;;;;;;;2.00;1.02;;;;;;;7.58;40.92;99745.94;5400849;26;20468;-83
2024/04/16 05:03:18;;;;;;;2.45;1.20;;;;;;;7.57;40.82;99749.66;5402744;26;20015;-81
2024/04/16 05:05:48;;;;;;;3.58;1.25;;;;;;;7.58;41.49;99745.06;5400622;26;20068;-82
2024/04/16 05:08:18;;;;;;;2.72;1.02;;;;;;;7.58;41.37;99742.34;5398399;26;20458;-81
2024/04/16 05:10:49;;;;;;;2.33;1.10;;;;;;;7.60;41.24;99744.94;5397041;26;21331;-82
2024/04/16 05:13:20;;;;;;;2.00;1.00;;;;;;;7.58;41.09;99731.44;5397718;26;20000;-82
2024/04/16 05:15:47;;;;;;;3.40;1.30;;;;;;;7.62;41.25;99732.88;5369102;26;20765;-83
2024/04/16 05:18:17;;;;;;;2.60;1.10;;;;;;;7.61;41.28;99728.41;5399948;26;20080;-82
2024/04/16 05:21:05;;;;;;;2.83;1.08;;;;;;;7.67;41.54;99729.72;5401925;26;20761;-73
2024/04/16 05:23:32;;;;;;;4.45;1.38;;;;;;;7.63;41.44;99725.56;5365289;26;20408;-73
2024/04/16 05:26:02;;;;;;;3.75;1.30;;;;;;;7.66;41.37;99731.59;5364102;26;20015;-72
2024/04/16 05:28:32;;;;;;;3.38;1.02;;;;;;;7.66;41.55;99731.59;5394484;26;20723;-72
2024/04/16 05:31:01;;;;;;;2.53;1.10;;;;;;;7.69;41.45;99739.47;5395405;26;20015;-72
2024/04/16 05:33:28;;;;;;;2.22;1.02;;;;;;;7.72;41.69;99732.88;5388919;26;20004;-73
2024/04/16 05:35:58;;;;;;;3.80;1.30;;;;;;;7.74;41.64;99728.16;5391742;26;20015;-72
2024/04/16 05:38:34;;;;;;;2.35;1.20;;;;;;;7.76;41.96;99731.59;5395736;26;20019;-72
2024/04/16 05:41:05;;;;;;;2.53;1.10;;;;;;;7.78;41.71;99724.97;5392220;26;20427;-72
2024/04/16 05:43:33;;;;;;;2.28;1.10;;;;;;;7.78;41.31;99715.94;5382675;26;20005;-72
2024/04/16 05:46:03;;;;;;;3.38;1.20;;;;;;;7.78;41.25;99711.38;5395942;26;20019;-72
2024/04/16 05:48:30;;;;;;;3.38;1.10;;;;;;;7.80;41.54;99709.38;5386112;26;20480;-71
2024/04/16 05:51:00;;;;;;;3.17;1.08;;;;;;;7.80;41.55;99706.63;5391771;26;20015;-72
2024/04/16 05:53:27;;;;;;;3.17;1.10;;;;;;;7.81;41.57;99699.31;5390489;26;20019;-72
2024/04/16 05:56:00;;;;;;;2.10;1.23;;;;;;;7.84;41.59;99683.56;5393786;26;20044;-71
2024/04/16 05:58:27;;;;;;;;;;;;;;;7.60;41.63;99687.75;5388338;26;20023;-72
2024/04/16 06:00:56;;;;;;;3.05;1.00;;;;;;;7.80;41.55;99681.25;5387678;26;19937;-71
2024/04/16 06:03:24;;;;;;;2.30;0.95;;;;;;;7.84;41.21;99688.16;5390842;26;20051;-73
2024/04/16 06:05:53;;;;;;;1.98;0.88;;;;;;;7.83;41.28;99683.72;5385172;26;20019;-71
2024/04/16 06:08:22;;;;;;;2.38;1.10;;;;;;;7.82;41.65;99671.09;5381991;26;20018;-72
2024/04/16 06:10:52;;;;;;;2.58;1.25;;;;;;;7.83;41.34;99667.38;5396981;26;20018;-72
2024/04/16 06:13:22;;;;;;;2.10;0.98;;;;;;;7.84;41.78;99669.09;5392878;26;20340;-71
2024/04/16 06:15:51;;;;;;;2.17;1.00;;;;;;;7.83;41.62;99661.91;5402686;26;20083;-71
2024/04/16 06:18:19;;;;;;;2.90;1.15;;;;;;;7.81;41.89;99653.03;5389441;26;20000;-71
2024/04/16 06:20:49;;;;;;;2.67;1.02;;;;;;;7.80;41.71;99651.31;5386319;26;20015;-72
2024/04/16 06:23:16;;;;;;;2.80;1.10;;;;;;;7.82;41.79;99644.72;5387717;26;20077;-71
2024/04/16 06:25:46;;;;;;;2.35;1.05;;;;;;;7.81;41.68;99642.13;5386533;26;20015;-71
2024/04/16 06:28:13;;;;;;;4.43;1.00;;;;;;;7.82;41.75;99635.69;5382181;26;20012;-72
2024/04/16 06:30:45;;;;;;;3.15;1.00;;;;;;;7.85;42.35;99627.19;5378674;26;20087;-73
2024/04/16 06:33:12;;;;;;;2.45;1.20;;;;;;;7.81;42.03;99613.03;5373140;26;20023;-72
2024/04/16 06:35:42;;;;;;;2.88;1.05;;;;;;;7.83;41.77;99613.75;5377108;26;20085;-72
2024/04/16 06:38:09;;;;;;;2.33;0.90;;;;;;;7.83;41.87;99619.19;5370409;26;20004;-72
2024/04/16 06:40:39;;;;;;;3.55;1.05;;;;;;;7.82;41.67;99622.91;5367256;26;20655;-71
2024/04/16 06:43:06;;;;;;;2.05;1.00;;;;;;;7.82;41.62;99612.03;5375978;26;20000;-72
2024/04/16 06:45:35;;;;;;;2.45;0.90;;;;;;;7.80;42.15;99613.16;5367353;26;20013;-72
2024/04/16 06:48:06;;;;;;;2.05;0.85;;;;;;;7.81;42.48;99615.75;5370924;26;20376;-71
2024/04/16 06:50:36;;;;;;;2.08;1.00;;;;;;;7.76;42.39;99609.03;5370898;26;20004;-72
2024/04/16 06:53:03;;;;;;;3.20;1.05;;;;;;;7.74;41.86;99598.28;5367299;26;20016;-71
2024/04/16 06:55:33;;;;;;;1.27;0.75;;;;;;;7.71;42.45;99609.47;5372709;26;20100;-71
2024/04/16 06:58:00;;;;;;;2.95;1.13;;;;;;;7.69;42.60;99616.06;5373197;26;20011;-72
2024/04/16 07:00:30;;;;;;;1.58;0.77;;;;;;;7.68;42.66;99589.84;5374912;26;20557;-72
2024/04/16 07:02:57;;;;;;;4.10;1.00;;;;;;;7.64;42.38;99611.06;5366265;26;20355;-73
2024/04/16 07:05:30;;;;;;;1.80;0.90;;;;;;;7.66;42.88;99592.72;5371416;26;20020;-72
2024/04/16 07:07:57;;;;;;;1.40;0.90;;;;;;;7.61;42.72;99594.13;5372487;26;20022;-71
2024/04/16 07:10:26;;;;;;;2.53;0.77;;;;;;;7.59;42.75;99580.69;5372428;26;20011;-75
2024/04/16 07:12:53;;;;;;;1.88;0.88;;;;;;;7.57;42.73;99583.56;5358791;26;20008;-72
2024/04/16 07:15:23;;;;;;;2.17;1.02;;;;;;;7.55;43.00;99574.66;5375703;26;20019;-73
2024/04/16 07:17:50;;;;;;;3.08;0.80;;;;;;;7.55;42.86;99566.50;5358312;26;20004;-72
2024/04/16 07:20:20;;;;;;;1.40;0.80;;;;;;;7.54;42.82;99561.19;5375722;26;20016;-71
2024/04/16 07:22:49;;;;;;;1.38;0.70;;;;;;;7.54;43.24;99561.19;5372757;26;20019;-72
2024/04/16 07:25:20;;;;;;;1.25;0.70;;;;;;;7.49;42.82;99558.94;5374496;26;20478;-72
2024/04/16 07:27:47;;;;;;;1.27;0.65;;;;;;;7.49;42.63;99544.47;5372414;26;20000;-72
2024/04/16 07:30:18;;;;;;;1.23;0.70;;;;;;;7.45;43.11;99533.00;5370437;26;20012;-72
2024/04/16 07:32:45;;;;;;;1.02;0.68;;;;;;;7.44;42.94;99538.56;5371307;26;20000;-73
2024/04/16 07:35:15;;;;;;;1.67;0.70;;;;;;;7.43;43.28;99545.91;5369537;26;20004;-73
2024/04/16 07:37:42;;;;;;;1.30;0.65;;;;;;;7.41;43.31;99547.06;5371868;26;20009;-72
2024/04/16 07:40:14;;;;;;;1.70;1.08;;;;;;;7.40;43.95;99548.06;5380726;26;20019;-71
2024/04/16 07:42:41;;;;;;;1.42;0.90;;;;;;;7.34;43.46;99564.97;5371527;26;20016;-72
2024/04/16 07:45:11;;;;;;;1.85;0.80;;;;;;;7.35;43.54;99558.53;5371360;26;20048;-72
2024/04/16 07:47:38;;;;;;;3.03;0.90;;;;;;;7.34;43.83;99562.25;5374352;26;20029;-71
2024/04/16 07:50:08;;;;;;;1.30;0.70;;;;;;;7.35;43.93;99563.97;5376007;26;20019;-73
2024/04/16 07:52:38;;;;;;;1.73;0.90;;;;;;;7.34;44.21;99548.66;5357875;26;20008;-71
2024/04/16 07:55:08;;;;;;;1.52;0.82;;;;;;;7.34;44.16;99554.94;5367850;26;20019;-72
2024/04/16 07:57:38;;;;;;;2.10;0.90;;;;;;;7.36;44.38;99550.19;5373283;26;20406;-73
2024/04/16 08:00:12;;;;;;;3.08;1.27;;;;;;;7.39;44.56;99551.78;5376450;26;20018;-73
2024/04/16 08:02:39;;;;;;;2.03;1.13;;;;;;;7.37;44.43;99545.63;5373488;26;20004;-72
2024/04/16 08:05:09;;;;;;;2.08;0.90;;;;;;;7.39;44.44;99544.47;5376241;26;20016;-71
2024/04/16 08:07:38;;;;;;;2.70;1.20;;;;;;;7.41;44.40;99539.75;5368383;26;20019;-72
2024/04/16 08:10:09;;;;;;;3.03;0.98;;;;;;;7.42;44.75;99543.34;5366165;26;20871;-71
2024/04/16 08:12:39;;;;;;;3.63;0.90;;;;;;;7.44;45.41;99542.16;5375805;26;20016;-72
2024/04/16 08:15:09;;;;;;;2.80;1.00;;;;;;;7.45;44.98;99543.88;5372316;26;20015;-76
2024/04/16 08:17:36;;;;;;;2.75;1.13;;;;;;;7.47;45.38;99550.03;5371153;26;20015;-71
2024/04/16 08:20:07;;;;;;;2.53;1.15;;;;;;;7.50;45.51;99549.75;5370732;26;20004;-72
2024/04/16 08:22:36;;;;;;;2.50;1.02;;;;;;;7.51;45.57;99547.91;5361683;26;20008;-73
2024/04/16 08:25:06;;;;;;;3.03;1.13;;;;;;;7.56;45.18;99551.03;5379837;26;20384;-72
2024/04/16 08:27:33;;;;;;;3.90;1.10;;;;;;;7.60;45.52;99566.06;5360925;26;20005;-71
2024/04/16 08:32:46;;;;;;;3.17;1.10;;;;;;;7.70;46.10;99550.56;5183209;27;20093;-71
2024/04/16 08:35:24;;;;;;;2.47;1.23;;;;;;;7.73;46.49;99531.22;5148755;27;20020;-71
2024/04/16 08:37:54;;;;;;;1.92;1.13;;;;;;;7.74;45.65;99530.19;5156142;27;20036;-71
2024/04/16 08:40:21;;;;;;;3.45;1.23;;;;;;;7.77;45.47;99534.47;5160887;27;20024;-71
2024/04/16 08:42:54;;;;;;;2.10;1.05;;;;;;;7.82;45.75;99526.72;5163655;27;20027;-71
2024/04/16 08:45:21;;;;;;;4.10;1.23;;;;;;;7.82;46.07;99535.75;5177341;27;20551;-71
2024/04/16 08:47:56;;;;;;;2.00;1.30;;;;;;;7.88;46.17;99546.06;5162212;27;20437;-71
2024/04/16 08:50:24;;;;;;;2.78;1.20;;;;;;;7.91;46.17;99544.91;5171234;27;20048;-71
2024/04/16 08:52:57;;;;;;;2.13;1.52;;;;;;;7.93;46.02;99549.19;5170393;27;20014;-71
2024/04/16 08:55:26;;;;;;;3.00;1.30;;;;;;;7.95;46.24;99541.72;5172121;27;20019;-71
2024/04/16 08:57:56;;;;;;;3.67;1.27;;;;;;;8.00;46.04;99551.31;5172948;27;20017;-71
2024/04/16 09:00:23;;;;;;;3.35;1.20;;;;;;;8.03;45.88;99546.41;5179963;27;20008;-71
2024/04/16 09:02:55;;;;;;;4.22;1.45;;;;;;;8.07;46.89;99539.69;5162162;27;20452;-71
2024/04/16 09:05:24;;;;;;;2.17;1.10;;;;;;;8.07;46.62;99553.31;5164464;27;20013;-71
2024/04/16 09:07:54;;;;;;;3.85;1.38;;;;;;;8.12;46.54;99558.28;5160583;27;20028;-71
2024/04/16 09:10:22;;;;;;;4.43;1.90;;;;;;;8.14;46.24;99548.13;5160496;27;20046;-71
2024/04/16 09:12:53;;;;;;;3.00;1.30;;;;;;;8.17;46.30;99558.75;5160076;27;20346;-71
2024/04/16 09:15:21;;;;;;;3.00;1.20;;;;;;;8.19;46.15;99557.56;5167913;27;20009;-71
2024/04/16 09:17:51;;;;;;;3.33;1.33;;;;;;;8.20;46.38;99572.91;5165777;27;20008;-71
2024/04/16 09:20:26;;;;;;;1.70;1.10;;;;;;;8.27;46.87;99573.16;5172212;27;20020;-71
2024/04/16 09:22:57;;;;;;;2.55;1.17;;;;;;;8.27;46.64;99567.72;5162491;27;20380;-71
2024/04/16 09:25:26;;;;;;;3.38;1.00;;;;;;;8.28;46.37;99569.44;5172163;27;20020;-71
2024/04/16 09:27:58;;;;;;;4.45;1.38;;;;;;;8.37;46.74;99573.13;5170986;27;20034;-71
2024/04/16 09:30:26;;;;;;;3.20;1.00;;;;;;;8.37;46.37;99576.69;5208469;27;20004;-71
2024/04/16 09:33:01;;;;;;;2.78;1.40;;;;;;;8.43;47.33;99553.41;5237393;27;20022;-71
2024/04/16 09:35:32;;;;;;;3.28;1.25;;;;;;;8.45;46.82;99568.63;5237385;27;20030;-71
2024/04/16 09:38:02;;;;;;;3.47;1.25;;;;;;;8.47;46.58;99572.06;5237908;27;20339;-71
2024/04/16 09:40:30;;;;;;;4.78;1.63;;;;;;;8.50;46.38;99585.41;5237105;27;20030;-71
2024/04/16 09:43:01;;;;;;;4.38;1.65;;;;;;;8.54;46.87;99584.06;5237394;27;20022;-71
2024/04/16 09:45:32;;;;;;;3.15;1.38;;;;;;;8.58;46.29;99590.09;5237384;27;20018;-71
2024/04/16 09:48:02;;;;;;;3.42;1.40;;;;;;;8.62;46.55;99581.44;5217168;27;20008;-71
2024/04/16 09:50:32;;;;;;;4.68;1.20;;;;;;;8.66;46.75;99601.09;5202540;27;20088;-71
2024/04/16 09:53:25;;;;;;;5.25;1.67;;;;;;;8.65;46.21;99593.91;5215412;27;20447;-71
2024/04/16 09:55:54;;;;;;;4.47;1.42;;;;;;;8.66;46.74;99596.50;5242674;27;20006;-71
2024/04/16 09:58:26;;;;;;;3.70;1.42;;;;;;;8.72;46.43;99595.03;5262866;27;20081;-70
2024/04/16 10:00:54;;;;;;;4.20;1.60;;;;;;;8.74;46.61;99592.16;5241816;27;20405;-71
2024/04/16 10:03:24;;;;;;;3.00;1.50;;;;;;;8.76;46.35;99588.22;5256572;27;20846;-70
2024/04/16 10:05:54;;;;;;;3.30;1.40;;;;;;;8.81;47.06;99602.28;5244245;27;20002;-70
2024/04/16 10:08:25;;;;;;;3.67;1.40;;;;;;;8.82;46.91;99604.00;5257947;27;20007;-70
2024/04/16 10:10:54;;;;;;;2.45;1.17;;;;;;;8.85;46.38;99603.69;5244292;27;20006;-70
2024/04/16 10:13:24;;;;;;;4.00;1.30;;;;;;;8.87;46.77;99628.09;5266148;27;20018;-69
2024/04/16 10:15:51;;;;;;;3.08;1.30;;;;;;;8.88;46.50;99636.13;5228804;27;20007;-70
2024/04/16 10:18:23;;;;;;;2.97;1.15;;;;;;;8.91;46.82;99644.00;5240538;27;20007;-70
2024/04/16 10:20:52;;;;;;;3.22;1.25;;;;;;;8.91;46.68;99657.66;5245472;27;20081;-70
2024/04/16 10:23:24;;;;;;;2.63;1.30;;;;;;;8.93;47.12;99654.75;5234824;27;20026;-70
2024/04/16 10:25:55;;;;;;;3.13;1.08;;;;;;;8.91;46.54;99670.44;5239885;27;20003;-70
2024/04/16 10:28:26;;;;;;;4.07;1.20;;;;;;;8.92;46.94;99686.63;5240545;27;20510;-71
2024/04/16 10:31:00;;;;;;;2.03;1.02;;;;;;;8.95;47.18;99683.63;5230534;27;20022;-71
2024/04/16 10:33:34;;;;;;;3.42;0.85;;;;;;;8.91;46.73;99682.22;5240107;27;20010;-70
2024/04/16 10:36:03;;;;;;;3.88;1.13;;;;;;;8.91;46.92;99671.31;5239626;27;20078;-70
2024/04/16 10:38:38;;;;;;;1.58;0.80;;;;;;;8.92;47.67;99672.13;5250492;27;20010;-70
2024/04/16 10:41:05;;;;;;;1.20;0.90;;;;;;;8.90;47.07;99677.78;5238087;27;20022;-70
2024/04/16 10:43:38;;;;;;;1.95;0.90;;;;;;;8.91;47.50;99690.41;5241354;27;20008;-70
2024/04/16 10:46:06;;;;;;;1.67;0.80;;;;;;;8.88;47.37;99690.69;5240268;27;20326;-70
2024/04/16 10:48:36;;;;;;;2.67;0.80;;;;;;;8.90;47.52;99691.41;5239673;27;20056;-70
2024/04/16 10:51:11;;;;;;;4.20;1.10;;;;;;;8.96;48.98;99704.44;5247674;27;20470;-70
2024/04/16 10:53:43;;;;;;;2.13;0.60;;;;;;;8.99;47.84;99687.78;5237356;27;20021;-70
2024/04/16 10:56:11;;;;;;;2.90;0.85;;;;;;;8.99;47.83;99695.97;5243041;27;20066;-70
2024/04/16 10:58:41;;;;;;;2.22;0.85;;;;;;;9.05;47.93;99703.53;5246971;27;20015;-70
2024/04/16 11:01:09;;;;;;;1.77;0.90;;;;;;;9.10;47.75;99706.66;5236957;27;20003;-70
2024/04/16 11:03:39;;;;;;;3.13;0.80;;;;;;;9.14;48.33;99712.66;5236638;27;20065;-70
2024/04/16 11:06:06;;;;;;;2.15;0.80;;;;;;;9.21;48.30;99715.63;5237710;27;20093;-70
2024/04/16 11:08:36;;;;;;;2.08;1.10;;;;;;;9.26;48.51;99721.47;5238404;27;20026;-70
2024/04/16 11:11:06;;;;;;;2.40;0.80;;;;;;;9.34;48.76;99716.97;5238759;27;20004;-70
2024/04/16 11:13:36;;;;;;;2.42;1.02;;;;;;;9.38;48.76;99729.34;5236941;27;20455;-70
2024/04/16 11:16:04;;;;;;;3.03;1.20;;;;;;;9.48;49.18;99729.28;5239767;27;20007;-70
2024/04/16 11:18:33;;;;;;;2.45;0.95;;;;;;;9.58;48.82;99723.72;5239394;27;20330;-70
2024/04/16 11:21:01;;;;;;;2.53;0.90;;;;;;;9.69;49.08;99731.69;5237938;27;20481;-70
2024/04/16 11:23:30;;;;;;;2.25;0.90;;;;;;;9.79;49.30;99735.22;5235917;27;20007;-70
2024/04/16 11:25:59;;;;;;;3.22;1.13;;;;;;;9.92;48.89;99732.94;5239212;27;20003;-70
2024/04/16 11:28:32;;;;;;;2.78;1.20;;;;;;;10.05;49.02;99732.53;5241055;27;20003;-70
2024/04/16 11:31:01;;;;;;;1.90;1.00;;;;;;;10.14;48.70;99737.94;5212197;27;20019;-70
2024/04/16 11:33:30;;;;;;;2.58;1.10;;;;;;;10.27;48.63;99739.38;5237035;27;20007;-70
2024/04/16 11:36:04;;;;;;;2.35;1.20;;;;;;;10.38;48.15;99737.25;5238797;27;20011;-70
2024/04/16 11:38:42;;;;;;;3.55;1.33;;;;;;;10.48;48.08;99737.97;5235473;27;20043;-70
2024/04/16 11:41:09;;;;;;;1.90;1.08;;;;;;;10.57;47.75;99738.91;5236881;27;20007;-70
2024/04/16 11:43:46;;;;;;;3.03;1.13;;;;;;;10.68;47.02;99719.50;5232811;27;20006;-70
2024/04/16 11:46:16;;;;;;;2.67;1.38;;;;;;;10.72;46.89;99751.00;5204620;27;20022;-70
2024/04/16 11:48:48;;;;;;;2.15;1.02;;;;;;;10.78;46.85;99750.34;5237299;27;19999;-70
2024/04/16 11:51:16;;;;;;;2.35;1.20;;;;;;;10.81;46.46;99766.41;5233537;27;20058;-70
2024/04/16 11:53:45;;;;;;;3.88;1.10;;;;;;;10.84;46.25;99755.16;5235695;27;20010;-70
2024/04/16 11:56:13;;;;;;;2.90;1.10;;;;;;;10.87;46.07;99776.75;5232918;27;20007;-70